createdAt,value
2022-09-13T00:01:28.334Z,95.20
2022-09-13T00:03:55.362Z,95.26
2022-09-13T00:06:22.597Z,94.77
2022-09-13T00:08:49.910Z,94.88
2022-09-13T00:11:20.609Z,96.79
2022-09-13T00:13:47.956Z,96.78
2022-09-13T00:16:17.328Z,97.23
2022-09-13T00:18:44.386Z,96.97
2022-09-13T00:21:14.566Z,98.36
2022-09-13T00:23:44.966Z,96.04
2022-09-13T00:26:14.389Z,96.62
2022-09-13T00:28:41.632Z,96.70
2022-09-13T00:31:09.603Z,95.85
2022-09-13T00:33:37.220Z,94.70
2022-09-13T00:36:09.369Z,95.58
2022-09-13T00:38:40.267Z,96.98
2022-09-13T00:41:12.248Z,95.40
2022-09-13T00:43:48.426Z,96.48
2022-09-13T00:46:39.822Z,95.40
2022-09-13T00:49:24.001Z,97.28
2022-09-13T00:51:56.992Z,97.07
2022-09-13T00:54:27.595Z,100.00
2022-09-13T00:56:59.370Z,100.00
2022-09-13T00:59:53.348Z,100.00
2022-09-13T01:02:21.098Z,100.00
2022-09-13T01:04:48.521Z,100.00
2022-09-13T01:07:17.732Z,100.00
2022-09-13T01:09:49.794Z,100.00
2022-09-13T01:12:56.876Z,100.00
2022-09-13T01:15:24.179Z,100.00
2022-09-13T01:17:53.084Z,100.00
2022-09-13T01:20:28.497Z,100.00
2022-09-13T01:23:26.559Z,100.00
2022-09-13T01:26:27.065Z,100.00
2022-09-13T01:29:11.294Z,100.00
2022-09-13T01:31:46.035Z,100.00
2022-09-13T01:34:19.363Z,100.00
2022-09-13T01:36:46.185Z,100.00
2022-09-13T01:39:38.687Z,100.00
2022-09-13T01:42:17.589Z,100.00
2022-09-13T01:45:20.835Z,100.00
2022-09-13T01:48:28.546Z,100.00
2022-09-13T01:51:08.921Z,100.00
2022-09-13T01:53:57.477Z,100.00
2022-09-13T01:56:35.562Z,100.00
2022-09-13T01:59:11.882Z,100.00
2022-09-13T02:01:46.589Z,100.00
2022-09-13T02:04:19.537Z,100.00
2022-09-13T02:06:56.761Z,100.00
2022-09-13T02:09:27.758Z,100.00
2022-09-13T02:12:02.952Z,100.00
2022-09-13T02:14:38.752Z,100.00
2022-09-13T02:17:23.317Z,100.00
2022-09-13T02:19:58.182Z,100.00
2022-09-13T02:22:36.217Z,100.00
2022-09-13T02:25:09.067Z,100.00
2022-09-13T02:27:38.641Z,100.00
2022-09-13T02:30:08.253Z,100.00
2022-09-13T02:32:48.990Z,100.00
2022-09-13T02:35:42.397Z,100.00
2022-09-13T02:38:16.673Z,100.00
2022-09-13T02:40:49.492Z,100.00
2022-09-13T02:43:22.661Z,100.00
2022-09-13T02:46:16.729Z,100.00
2022-09-13T02:49:05.087Z,100.00
2022-09-13T02:51:49.851Z,100.00
2022-09-13T02:54:30.321Z,100.00
2022-09-13T02:57:12.969Z,100.00
2022-09-13T02:59:39.932Z,100.00
2022-09-13T03:02:11.333Z,100.00
2022-09-13T03:04:38.421Z,100.00
2022-09-13T03:07:13.253Z,100.00
2022-09-13T03:09:52.221Z,100.00
2022-09-13T03:12:31.209Z,100.00
2022-09-13T03:15:30.846Z,100.00
2022-09-13T03:18:31.297Z,100.00
2022-09-13T03:21:30.333Z,100.00
2022-09-13T03:24:30.422Z,100.00
2022-09-13T03:27:21.717Z,100.00
2022-09-13T03:30:04.345Z,100.00
2022-09-13T03:32:51.908Z,100.00
2022-09-13T03:35:32.209Z,100.00
2022-09-13T03:38:11.010Z,100.00
2022-09-13T03:40:47.165Z,100.00
2022-09-13T03:43:20.145Z,100.00
2022-09-13T03:45:54.758Z,100.00
2022-09-13T03:48:23.417Z,100.00
2022-09-13T03:50:50.688Z,100.00
2022-09-13T03:53:23.688Z,100.00
2022-09-13T03:55:50.660Z,100.00
2022-09-13T03:58:20.686Z,100.00
2022-09-13T04:00:47.844Z,100.00
2022-09-13T04:03:15.410Z,100.00
2022-09-13T04:05:42.382Z,100.00
2022-09-13T04:08:09.764Z,100.00
2022-09-13T04:10:37.652Z,100.00
2022-09-13T04:13:05.072Z,100.00
2022-09-13T04:15:32.005Z,100.00
2022-09-13T04:17:59.827Z,100.00
2022-09-13T04:20:26.828Z,100.00
2022-09-13T04:22:54.944Z,100.00
2022-09-13T04:25:22.875Z,100.00
2022-09-13T04:27:59.956Z,100.00
2022-09-13T04:30:28.072Z,100.00
2022-09-13T04:32:57.049Z,100.00
2022-09-13T04:35:23.952Z,100.00
2022-09-13T04:37:50.906Z,100.00
2022-09-13T04:40:17.871Z,100.00
2022-09-13T04:42:45.296Z,100.00
2022-09-13T04:45:12.256Z,100.00
2022-09-13T04:47:39.282Z,100.00
2022-09-13T04:50:07.081Z,100.00
2022-09-13T04:52:34.122Z,100.00
2022-09-13T04:55:01.972Z,100.00
2022-09-13T04:57:29.250Z,100.00
2022-09-13T04:59:56.177Z,100.00
2022-09-13T05:02:23.230Z,100.00
2022-09-13T05:04:50.200Z,100.00
2022-09-13T05:07:17.497Z,100.00
2022-09-13T05:09:44.492Z,100.00
2022-09-13T05:12:11.768Z,100.00
2022-09-13T05:14:38.797Z,100.00
2022-09-13T05:17:05.757Z,100.00
2022-09-13T05:19:32.963Z,100.00
2022-09-13T05:22:00.422Z,100.00
2022-09-13T05:24:27.605Z,100.00
2022-09-13T05:26:54.521Z,100.00
2022-09-13T05:29:21.409Z,100.00
2022-09-13T05:31:48.379Z,100.00
2022-09-13T05:34:17.809Z,100.00
2022-09-13T05:36:44.797Z,100.00
2022-09-13T05:42:05.044Z,100.00
2022-09-13T05:44:32.028Z,100.00
2022-09-13T05:46:58.924Z,100.00
2022-09-13T05:49:25.918Z,100.00
2022-09-13T05:51:52.858Z,100.00
2022-09-13T05:54:19.818Z,100.00
2022-09-13T05:56:46.717Z,100.00
2022-09-13T05:59:14.679Z,99.10
2022-09-13T06:01:42.109Z,98.76
2022-09-13T06:04:09.100Z,98.36
2022-09-13T06:06:36.136Z,97.47
2022-09-13T06:09:06.340Z,97.15
2022-09-13T06:11:33.355Z,97.13
2022-09-13T06:14:00.238Z,97.52
2022-09-13T06:16:27.268Z,97.99
2022-09-13T06:18:54.272Z,96.59
2022-09-13T06:21:26.959Z,96.26
2022-09-13T06:23:56.149Z,96.05
2022-09-13T06:26:25.393Z,96.38
2022-09-13T06:29:17.020Z,96.31
2022-09-13T06:31:45.182Z,96.94
2022-09-13T06:34:17.350Z,97.38
2022-09-13T06:36:44.358Z,96.34
2022-09-13T06:39:11.260Z,96.92
2022-09-13T06:41:38.601Z,97.31
2022-09-13T06:44:05.583Z,98.21
2022-09-13T06:46:35.817Z,97.75
2022-09-13T06:49:05.785Z,98.03
2022-09-13T06:51:34.462Z,97.00
2022-09-13T06:54:03.768Z,96.32
2022-09-13T06:56:33.213Z,97.06
2022-09-13T06:59:04.604Z,96.90
2022-09-13T07:01:32.637Z,96.00
2022-09-13T07:04:10.819Z,96.32
2022-09-13T07:06:48.773Z,96.23
2022-09-13T07:09:19.082Z,96.31
2022-09-13T07:11:47.181Z,95.62
2022-09-13T07:14:25.541Z,95.13
2022-09-13T07:16:53.103Z,94.63
2022-09-13T07:19:26.316Z,94.94
2022-09-13T07:21:54.725Z,95.18
2022-09-13T07:24:22.292Z,94.41
2022-09-13T07:26:49.804Z,94.17
2022-09-13T07:29:19.656Z,93.91
2022-09-13T07:31:49.259Z,93.18
2022-09-13T07:34:17.630Z,92.65
2022-09-13T07:36:46.658Z,92.93
2022-09-13T07:39:17.318Z,92.46
2022-09-13T07:41:48.162Z,91.31
2022-09-13T07:44:15.296Z,90.79
2022-09-13T07:46:43.613Z,91.22
2022-09-13T07:49:16.470Z,91.68
2022-09-13T07:51:44.591Z,89.32
2022-09-13T07:54:17.496Z,89.74
2022-09-13T07:56:45.346Z,90.99
2022-09-13T07:59:16.586Z,90.78
2022-09-13T08:01:49.394Z,90.35
2022-09-13T08:04:19.758Z,90.04
2022-09-13T08:06:47.105Z,89.09
2022-09-13T08:09:14.857Z,88.20
2022-09-13T08:11:45.106Z,87.45
2022-09-13T08:14:14.107Z,87.63
2022-09-13T08:16:41.280Z,86.35
2022-09-13T08:19:11.987Z,86.09
2022-09-13T08:21:40.554Z,86.32
2022-09-13T08:24:13.346Z,87.02
2022-09-13T08:26:40.257Z,87.27
2022-09-13T08:29:07.672Z,86.69
2022-09-13T08:31:35.101Z,86.04
2022-09-13T08:34:02.169Z,86.10
2022-09-13T08:36:29.637Z,84.86
2022-09-13T08:38:59.127Z,83.80
2022-09-13T08:41:31.914Z,83.63
2022-09-13T08:44:29.551Z,83.70
2022-09-13T08:47:15.022Z,83.31
2022-09-13T08:49:46.654Z,82.94
2022-09-13T08:52:25.426Z,81.35
2022-09-13T08:54:57.945Z,81.45
2022-09-13T08:57:31.079Z,82.58
2022-09-13T09:00:10.221Z,83.49
2022-09-13T09:03:30.710Z,83.63
2022-09-13T09:05:57.635Z,83.39
2022-09-13T09:08:48.059Z,84.21
2022-09-13T09:11:40.810Z,83.27
2022-09-13T09:14:20.669Z,82.66
2022-09-13T09:16:53.553Z,82.02
2022-09-13T09:19:30.237Z,80.44
2022-09-13T09:21:59.300Z,81.09
2022-09-13T09:24:26.245Z,76.83
2022-09-13T09:26:57.144Z,78.46
2022-09-13T09:29:32.592Z,79.03
2022-09-13T09:32:45.549Z,79.93
2022-09-13T09:35:46.042Z,80.91
2022-09-13T09:38:44.309Z,79.88
2022-09-13T09:41:23.253Z,80.34
2022-09-13T09:43:52.515Z,78.99
2022-09-13T09:46:24.771Z,77.60
2022-09-13T09:48:56.402Z,76.52
2022-09-13T09:51:26.186Z,78.31
2022-09-13T09:54:02.093Z,77.32
2022-09-13T09:56:33.934Z,77.29
2022-09-13T09:59:02.409Z,77.54
2022-09-13T10:01:35.685Z,77.35
2022-09-13T10:04:11.407Z,78.93
2022-09-13T10:06:40.525Z,76.89
2022-09-13T10:09:13.425Z,78.11
2022-09-13T10:11:50.936Z,75.79
2022-09-13T10:14:35.907Z,79.40
2022-09-13T10:17:17.265Z,78.15
2022-09-13T10:19:58.650Z,79.16
2022-09-13T10:22:26.936Z,79.22
2022-09-13T10:24:54.068Z,79.55
2022-09-13T10:27:26.866Z,78.83
2022-09-13T10:29:59.523Z,80.35
2022-09-13T10:32:28.694Z,81.63
2022-09-13T10:34:59.112Z,80.05
2022-09-13T10:37:33.599Z,77.41
2022-09-13T10:40:06.136Z,77.21
2022-09-13T10:42:33.627Z,78.21
2022-09-13T10:45:06.326Z,77.25
2022-09-13T10:47:39.241Z,75.94
2022-09-13T10:50:27.747Z,76.00
2022-09-13T10:52:59.293Z,75.77
2022-09-13T10:55:27.392Z,76.12
2022-09-13T10:58:03.484Z,76.07
2022-09-13T11:00:36.789Z,73.73
2022-09-13T11:03:21.900Z,73.87
2022-09-13T11:08:47.536Z,74.89
2022-09-13T11:11:53.420Z,69.55
2022-09-13T11:14:58.471Z,71.87
2022-09-13T11:17:37.261Z,71.58
2022-09-13T11:20:13.454Z,71.58
2022-09-13T11:23:22.214Z,70.40
2022-09-13T11:26:10.075Z,69.67
2022-09-13T11:29:15.022Z,68.46
2022-09-13T11:31:56.013Z,67.61
2022-09-13T11:34:33.121Z,68.57
2022-09-13T11:37:18.202Z,66.71
2022-09-13T11:40:10.303Z,66.97
2022-09-13T11:42:48.854Z,66.39
2022-09-13T11:45:31.285Z,66.24
2022-09-13T11:48:30.538Z,64.87
2022-09-13T11:51:25.139Z,66.11
2022-09-13T11:54:27.770Z,65.63
2022-09-13T11:56:59.380Z,66.51
2022-09-13T11:59:56.096Z,63.04
2022-09-13T12:02:52.469Z,65.33
2022-09-13T12:05:49.177Z,64.96
2022-09-13T12:08:42.334Z,65.57
2022-09-13T12:11:36.412Z,66.26
2022-09-13T12:14:27.701Z,67.09
2022-09-13T12:17:49.965Z,68.62
2022-09-13T12:20:27.429Z,68.95
2022-09-13T12:22:57.989Z,66.88
2022-09-13T12:25:56.965Z,68.70
2022-09-13T12:29:06.903Z,69.80
2022-09-13T12:31:33.917Z,69.38
2022-09-13T12:34:07.492Z,69.82
2022-09-13T12:37:01.969Z,70.20
2022-09-13T12:39:56.381Z,68.59
2022-09-13T12:42:52.521Z,67.82
2022-09-13T12:46:16.332Z,69.21
2022-09-13T12:48:43.341Z,69.24
2022-09-13T12:51:28.100Z,68.14
2022-09-13T12:54:07.426Z,67.05
2022-09-13T12:56:43.132Z,67.53
2022-09-13T12:59:39.626Z,67.63
2022-09-13T13:02:40.641Z,66.15
2022-09-13T13:05:19.546Z,62.63
2022-09-13T13:07:53.021Z,62.36
2022-09-13T13:10:33.506Z,63.22
2022-09-13T13:13:24.050Z,64.79
2022-09-13T13:15:50.892Z,65.90
2022-09-13T13:18:27.296Z,67.58
2022-09-13T13:20:54.156Z,65.05
2022-09-13T13:23:39.902Z,64.41
2022-09-13T13:26:08.637Z,64.19
2022-09-13T13:28:44.590Z,64.77
2022-09-13T13:31:30.257Z,65.72
2022-09-13T13:34:06.052Z,66.15
2022-09-13T13:37:04.146Z,66.53
2022-09-13T13:40:11.019Z,65.57
2022-09-13T13:42:39.523Z,63.57
2022-09-13T13:45:17.696Z,63.73
2022-09-13T13:48:12.405Z,65.44
2022-09-13T13:51:15.218Z,64.55
2022-09-13T13:54:22.557Z,62.84
2022-09-13T13:56:50.002Z,62.79
2022-09-13T13:59:23.262Z,62.38
2022-09-13T14:01:55.576Z,64.63
2022-09-13T14:04:34.644Z,63.26
2022-09-13T14:07:21.323Z,63.36
2022-09-13T14:10:39.616Z,62.33
2022-09-13T14:13:25.246Z,60.94
2022-09-13T14:16:39.146Z,61.16
2022-09-13T14:19:34.269Z,61.31
2022-09-13T14:22:21.063Z,61.00
2022-09-13T14:24:49.025Z,63.05
2022-09-13T14:27:33.261Z,62.99
2022-09-13T14:30:22.834Z,62.72
2022-09-13T14:32:55.502Z,60.72
2022-09-13T14:35:35.258Z,60.90
2022-09-13T14:38:30.963Z,58.89
2022-09-13T14:41:31.395Z,59.83
2022-09-13T14:44:24.947Z,58.76
2022-09-13T14:47:19.353Z,60.26
2022-09-13T14:49:51.044Z,62.02
2022-09-13T14:52:29.857Z,61.95
2022-09-13T14:55:04.199Z,60.42
2022-09-13T14:57:36.087Z,60.36
2022-09-13T15:00:15.704Z,61.61
2022-09-13T15:02:53.791Z,62.76
2022-09-13T15:05:40.109Z,63.16
2022-09-13T15:08:25.841Z,63.19
2022-09-13T15:10:53.116Z,63.08
2022-09-13T15:13:42.589Z,62.19
2022-09-13T15:16:26.173Z,63.62
2022-09-13T15:19:35.671Z,64.11
2022-09-13T15:22:06.261Z,64.16
2022-09-13T15:24:34.466Z,65.71
2022-09-13T15:27:07.968Z,66.89
2022-09-13T15:29:37.433Z,67.79
2022-09-13T15:32:29.307Z,67.36
2022-09-13T15:34:58.103Z,66.84
2022-09-13T15:37:34.403Z,67.95
2022-09-13T15:40:20.175Z,68.34
2022-09-13T15:42:49.005Z,69.01
2022-09-13T15:45:17.317Z,69.83
2022-09-13T15:47:46.759Z,69.73
2022-09-13T15:50:21.036Z,71.21
2022-09-13T15:53:11.403Z,71.11
2022-09-13T15:55:39.516Z,71.25
2022-09-13T15:58:06.421Z,70.69
2022-09-13T16:00:33.381Z,70.41
2022-09-13T16:03:00.333Z,71.02
2022-09-13T16:05:46.080Z,71.44
2022-09-13T16:08:13.280Z,72.18
2022-09-13T16:10:40.264Z,70.11
2022-09-13T16:13:07.196Z,69.20
2022-09-13T16:15:34.425Z,70.46
2022-09-13T16:18:19.981Z,71.21
2022-09-13T16:20:47.534Z,70.56
2022-09-13T16:23:14.462Z,70.31
2022-09-13T16:25:42.040Z,71.03
2022-09-13T16:28:27.834Z,71.37
2022-09-13T16:30:54.954Z,71.76
2022-09-13T16:33:22.472Z,72.63
2022-09-13T16:35:49.415Z,73.41
2022-09-13T16:38:16.388Z,76.74
2022-09-13T16:40:43.478Z,77.69
2022-09-13T16:43:22.447Z,77.88
2022-09-13T16:45:51.372Z,78.42
2022-09-13T16:48:18.297Z,80.41
2022-09-13T16:50:45.510Z,84.60
2022-09-13T16:53:35.294Z,83.55
2022-09-13T16:56:17.307Z,85.40
2022-09-13T16:58:49.226Z,91.50
2022-09-13T17:01:19.029Z,93.92
2022-09-13T17:03:46.049Z,95.94
2022-09-13T17:06:15.416Z,97.38
2022-09-13T17:08:46.629Z,96.79
2022-09-13T17:11:15.436Z,97.21
2022-09-13T17:13:42.419Z,91.98
2022-09-13T17:16:25.526Z,93.18
2022-09-13T17:18:53.053Z,100.00
2022-09-13T17:21:21.707Z,100.00
2022-09-13T17:23:49.386Z,100.00
2022-09-13T17:26:16.349Z,100.00
2022-09-13T17:29:01.806Z,100.00
2022-09-13T17:31:28.880Z,100.00
2022-09-13T17:33:56.180Z,100.00
2022-09-13T17:36:23.111Z,100.00
2022-09-13T17:39:08.902Z,100.00
2022-09-13T17:41:36.378Z,100.00
2022-09-13T17:44:03.838Z,100.00
2022-09-13T17:46:30.891Z,100.00
2022-09-13T17:48:59.455Z,100.00
2022-09-13T17:51:45.059Z,100.00
2022-09-13T17:54:12.897Z,100.00
2022-09-13T17:56:42.648Z,100.00
2022-09-13T17:59:10.925Z,100.00
2022-09-13T18:01:40.684Z,100.00
2022-09-13T18:04:08.435Z,100.00
2022-09-13T18:06:36.688Z,100.00
2022-09-13T18:09:03.693Z,100.00
2022-09-13T18:11:30.709Z,100.00
2022-09-13T18:13:57.654Z,100.00
2022-09-13T18:16:26.300Z,100.00
2022-09-13T18:18:53.511Z,100.00
2022-09-13T18:21:23.427Z,100.00
2022-09-13T18:23:52.937Z,100.00
2022-09-13T18:26:38.406Z,100.00
2022-09-13T18:29:09.980Z,100.00
2022-09-13T18:31:48.660Z,100.00
2022-09-13T18:34:34.337Z,100.00
2022-09-13T18:37:01.462Z,100.00
2022-09-13T18:39:46.753Z,100.00
2022-09-13T18:42:14.009Z,100.00
2022-09-13T18:44:40.954Z,100.00
2022-09-13T18:47:08.701Z,100.00
2022-09-13T18:49:35.700Z,100.00
2022-09-13T18:52:21.005Z,100.00
2022-09-13T18:54:48.096Z,100.00
2022-09-13T18:57:15.133Z,100.00
2022-09-13T18:59:42.150Z,100.00
2022-09-13T19:02:27.524Z,100.00
2022-09-13T19:04:55.888Z,100.00
2022-09-13T19:07:23.233Z,100.00
2022-09-13T19:09:50.212Z,100.00
2022-09-13T19:12:17.268Z,100.00
2022-09-13T19:14:44.543Z,100.00
2022-09-13T19:17:30.105Z,100.00
2022-09-13T19:19:57.107Z,100.00
2022-09-13T19:22:24.037Z,100.00
2022-09-13T19:24:52.397Z,100.00
2022-09-13T19:27:19.749Z,100.00
2022-09-13T19:30:02.673Z,100.00
2022-09-13T19:32:48.382Z,100.00
2022-09-13T19:35:15.399Z,100.00
2022-09-13T19:38:00.745Z,100.00
2022-09-13T19:40:28.088Z,100.00
2022-09-13T19:42:55.098Z,100.00
2022-09-13T19:45:22.536Z,100.00
2022-09-13T19:48:34.749Z,100.00
2022-09-13T19:50:50.274Z,100.00
2022-09-13T19:53:17.259Z,100.00
2022-09-13T19:55:46.609Z,100.00
2022-09-13T19:58:15.173Z,100.00
2022-09-13T20:00:43.355Z,100.00
2022-09-13T20:03:10.278Z,100.00
2022-09-13T20:05:37.598Z,100.00
2022-09-13T20:08:04.909Z,100.00
2022-09-13T20:10:32.823Z,100.00
2022-09-13T20:13:19.469Z,100.00
2022-09-13T20:15:48.391Z,100.00
2022-09-13T20:18:15.519Z,100.00
2022-09-13T20:20:43.314Z,100.00
2022-09-13T20:23:10.425Z,100.00
2022-09-13T20:25:40.506Z,100.00
2022-09-13T20:28:26.353Z,100.00
2022-09-13T20:30:55.153Z,100.00
2022-09-13T20:33:22.832Z,100.00
2022-09-13T20:35:50.339Z,100.00
2022-09-13T20:38:35.906Z,100.00
2022-09-13T20:41:08.063Z,100.00
2022-09-13T20:43:37.285Z,100.00
2022-09-13T20:46:05.636Z,100.00
2022-09-13T20:48:33.993Z,100.00
2022-09-13T20:51:21.611Z,100.00
2022-09-13T20:53:53.509Z,100.00
2022-09-13T20:56:20.497Z,100.00
2022-09-13T20:58:56.867Z,100.00
2022-09-13T21:01:43.332Z,100.00
2022-09-13T21:04:10.508Z,100.00
2022-09-13T21:07:02.005Z,100.00
2022-09-13T21:09:29.204Z,100.00
2022-09-13T21:11:56.155Z,100.00
2022-09-13T21:14:23.592Z,100.00
2022-09-13T21:16:50.616Z,100.00
2022-09-13T21:19:17.581Z,100.00
2022-09-13T21:21:44.556Z,100.00
2022-09-13T21:24:12.587Z,100.00
2022-09-13T21:26:42.237Z,100.00
2022-09-13T21:29:11.254Z,100.00
2022-09-13T21:31:38.767Z,100.00
2022-09-13T21:34:08.530Z,100.00
2022-09-13T21:36:35.756Z,100.00
2022-09-13T21:39:15.105Z,100.00
2022-09-13T21:41:42.933Z,100.00
2022-09-13T21:44:10.234Z,100.00
2022-09-13T21:46:38.557Z,100.00
2022-09-13T21:49:08.056Z,100.00
2022-09-13T21:51:49.654Z,100.00
2022-09-13T21:54:19.089Z,100.00
2022-09-13T21:56:51.733Z,100.00
2022-09-13T21:59:36.992Z,100.00
2022-09-13T22:02:04.157Z,100.00
2022-09-13T22:04:32.975Z,100.00
2022-09-13T22:06:59.918Z,100.00
2022-09-13T22:09:27.688Z,100.00
2022-09-13T22:11:56.259Z,100.00
2022-09-13T22:14:23.229Z,100.00
2022-09-13T22:16:52.606Z,100.00
2022-09-13T22:19:25.857Z,100.00
2022-09-13T22:21:55.483Z,100.00
2022-09-13T22:24:24.506Z,100.00
2022-09-13T22:27:09.860Z,100.00
2022-09-13T22:29:36.880Z,100.00
2022-09-13T22:32:25.070Z,100.00
2022-09-13T22:34:53.598Z,100.00
2022-09-13T22:37:20.516Z,100.00
2022-09-13T22:39:47.532Z,100.00
2022-09-13T22:42:14.508Z,100.00
2022-09-13T22:44:41.591Z,100.00
2022-09-13T22:47:27.723Z,100.00
2022-09-13T22:49:54.689Z,100.00
2022-09-13T22:52:21.593Z,100.00
2022-09-13T22:54:50.765Z,100.00
2022-09-13T22:57:17.738Z,100.00
2022-09-13T23:00:03.556Z,100.00
2022-09-13T23:02:31.040Z,100.00
2022-09-13T23:04:57.944Z,100.00
2022-09-13T23:07:25.249Z,100.00
2022-09-13T23:09:52.193Z,100.00
2022-09-13T23:12:37.617Z,100.00
2022-09-13T23:15:05.069Z,100.00
2022-09-13T23:17:31.956Z,100.00
2022-09-13T23:19:58.878Z,100.00
2022-09-13T23:22:25.805Z,100.00
2022-09-13T23:24:52.710Z,100.00
2022-09-13T23:27:19.624Z,100.00
2022-09-13T23:29:46.836Z,100.00
2022-09-13T23:32:13.814Z,100.00
2022-09-13T23:34:40.740Z,100.00
2022-09-13T23:37:07.773Z,100.00
2022-09-13T23:39:53.333Z,100.00
2022-09-13T23:42:21.252Z,100.00
2022-09-13T23:44:48.176Z,100.00
2022-09-13T23:47:15.092Z,100.00
2022-09-13T23:50:00.653Z,100.00
2022-09-13T23:52:27.706Z,100.00
2022-09-13T23:54:54.652Z,100.00
2022-09-13T23:57:21.537Z,100.00
2022-09-13T23:59:48.593Z,100.00
